Time;durP1;ratioP1;P1;durP2;ratioP2;P2;SDS_P1;SDS_P2;PMS_P1;PMS_P2;Temp;Humidity;BMP_temperature;BMP_pressure;BME280_temperature;BME280_humidity;BME280_pressure;Samples;Min_cycle;Max_cycle;Signal;HPM_P1;HPM_P2
2022/08/21 00:02:20;;;;;;;13.00;7.95;;;15.20;85.10;;;;;;5064900;28;20449;-46
2022/08/21 00:04:47;;;;;;;12.82;7.15;;;15.20;85.00;;;;;;5051938;28;20591;-45
2022/08/21 00:07:13;;;;;;;8.93;6.97;;;15.20;85.10;;;;;;5059415;28;20037;-45
2022/08/21 00:09:41;;;;;;;11.30;6.93;;;15.10;84.70;;;;;;5053636;28;20491;-44
2022/08/21 00:12:07;;;;;;;12.10;6.18;;;15.20;84.50;;;;;;5069390;28;20043;-45
2022/08/21 00:14:36;;;;;;;11.88;6.20;;;15.20;84.40;;;;;;5065371;28;20066;-46
2022/08/21 00:17:03;;;;;;;7.90;6.43;;;15.10;84.20;;;;;;5067747;28;20417;-45
2022/08/21 00:19:28;;;;;;;8.70;6.00;;;15.20;83.90;;;;;;5043011;28;20772;-44
2022/08/21 00:21:54;;;;;;;10.35;6.18;;;15.10;83.30;;;;;;5050847;28;20025;-45
2022/08/21 00:24:22;;;;;;;15.70;6.65;;;15.20;83.50;;;;;;5051420;28;20450;-45
2022/08/21 00:26:51;;;;;;;8.05;5.80;;;15.10;83.30;;;;;;5052990;28;20493;-46
2022/08/21 00:29:19;;;;;;;11.13;5.78;;;15.20;83.00;;;;;;5032688;28;20033;-47
2022/08/21 00:31:45;;;;;;;9.32;4.75;;;15.10;82.30;;;;;;5052925;28;20031;-46
2022/08/21 00:34:12;;;;;;;8.23;5.20;;;15.20;81.50;;;;;;5056099;28;20448;-45
2022/08/21 00:36:39;;;;;;;8.02;4.55;;;15.20;81.30;;;;;;5061244;28;20028;-47
2022/08/21 00:39:07;;;;;;;8.98;4.47;;;15.20;80.80;;;;;;5053933;28;20346;-48
2022/08/21 00:41:35;;;;;;;10.48;4.13;;;15.20;80.80;;;;;;5064329;28;20016;-45
2022/08/21 00:44:01;;;;;;;9.10;4.82;;;15.30;80.80;;;;;;5053867;28;20028;-46
2022/08/21 00:46:27;;;;;;;6.13;4.22;;;15.20;80.60;;;;;;5060966;28;20045;-44
2022/08/21 00:48:52;;;;;;;9.50;4.93;;;15.20;80.10;;;;;;5059026;28;20032;-45
2022/08/21 00:51:32;;;;;;;7.32;4.50;;;15.20;80.30;;;;;;5041176;28;20044;-45
2022/08/21 00:54:00;;;;;;;9.02;4.57;;;15.10;80.50;;;;;;5064053;28;20032;-45
2022/08/21 00:56:27;;;;;;;9.43;6.15;;;15.10;81.40;;;;;;5050088;28;20071;-45
2022/08/21 00:58:55;;;;;;;12.98;4.75;;;15.00;81.30;;;;;;5089310;28;20028;-45
2022/08/21 01:01:21;;;;;;;8.77;5.07;;;15.00;81.10;;;;;;5065848;28;20123;-45
2022/08/21 01:03:47;;;;;;;8.90;4.65;;;15.00;81.00;;;;;;5030963;28;20075;-45
2022/08/21 01:06:13;;;;;;;10.18;4.95;;;15.00;81.00;;;;;;5031913;28;20032;-49
2022/08/21 01:08:39;;;;;;;9.00;4.82;;;14.90;81.10;;;;;;5049133;28;20028;-45
2022/08/21 01:11:05;;;;;;;8.35;4.75;;;15.00;81.60;;;;;;5031700;28;20024;-45
2022/08/21 01:13:33;;;;;;;6.90;4.63;;;15.00;82.10;;;;;;5031134;28;20042;-46
2022/08/21 01:16:02;;;;;;;8.10;5.43;;;14.90;82.80;;;;;;5035240;28;20037;-47
2022/08/21 01:18:29;;;;;;;8.43;5.07;;;14.90;83.10;;;;;;5048244;28;20037;-46
2022/08/21 01:21:06;;;;;;;6.47;4.68;;;14.80;82.80;;;;;;5031329;28;20027;-45
2022/08/21 01:23:33;;;;;;;5.97;4.22;;;14.80;83.30;;;;;;5048239;28;20025;-45
2022/08/21 01:25:58;;;;;;;9.73;4.43;;;14.70;83.30;;;;;;5048683;28;20425;-45
2022/08/21 01:28:24;;;;;;;7.25;4.63;;;14.70;83.40;;;;;;5063971;28;20029;-44
2022/08/21 01:30:54;;;;;;;7.82;4.78;;;14.70;83.40;;;;;;5027862;28;20452;-47
2022/08/21 01:33:23;;;;;;;13.35;5.53;;;14.70;83.40;;;;;;5055022;28;20071;-45
2022/08/21 01:35:49;;;;;;;;;;;14.60;83.30;;;;;;5031507;28;20037;-45
2022/08/21 01:38:15;;;;;;;18.45;5.25;;;14.60;83.50;;;;;;5048385;28;20348;-45
2022/08/21 01:40:43;;;;;;;7.05;4.65;;;14.50;83.40;;;;;;5061621;28;20024;-50
2022/08/21 01:43:09;;;;;;;10.10;5.20;;;14.40;83.90;;;;;;5050611;28;20025;-46
2022/08/21 01:45:35;;;;;;;7.18;4.70;;;14.40;83.90;;;;;;5050918;28;20131;-46
2022/08/21 01:48:04;;;;;;;10.40;4.88;;;14.40;84.00;;;;;;5061775;28;20430;-46
2022/08/21 01:50:29;;;;;;;11.05;5.85;;;14.30;84.20;;;;;;5065909;28;20354;-46
2022/08/21 01:52:55;;;;;;;6.00;4.88;;;14.30;84.10;;;;;;5065693;28;20038;-46
2022/08/21 01:55:21;;;;;;;7.65;5.43;;;14.30;84.30;;;;;;5047253;28;20107;-45
2022/08/21 01:57:50;;;;;;;8.55;4.93;;;14.30;84.60;;;;;;5056516;28;20115;-46
2022/08/21 02:00:18;;;;;;;9.07;5.05;;;14.30;84.60;;;;;;5058062;28;20507;-47
2022/08/21 02:02:46;;;;;;;9.90;6.25;;;14.30;84.90;;;;;;5040610;28;20079;-46
2022/08/21 02:05:12;;;;;;;11.75;6.72;;;14.20;84.80;;;;;;5056002;28;20024;-48
2022/08/21 02:07:43;;;;;;;11.50;7.07;;;14.20;84.70;;;;;;5048038;28;20033;-45
2022/08/21 02:10:10;;;;;;;9.05;7.40;;;14.20;84.90;;;;;;5054594;28;20062;-46
2022/08/21 02:12:35;;;;;;;10.90;7.45;;;14.20;84.80;;;;;;5029817;28;20033;-47
2022/08/21 02:15:04;;;;;;;13.30;8.18;;;14.20;84.80;;;;;;5031736;28;20040;-46
2022/08/21 02:17:44;;;;;;;9.70;7.55;;;14.10;85.20;;;;;;5054160;28;20033;-46
2022/08/21 02:20:15;;;;;;;11.88;8.02;;;14.10;85.30;;;;;;5034924;28;20334;-46
2022/08/21 02:22:40;;;;;;;11.05;7.80;;;14.10;85.50;;;;;;5035255;28;20564;-46
2022/08/21 02:25:06;;;;;;;12.73;7.45;;;14.00;85.70;;;;;;5051834;28;20021;-46
2022/08/21 02:27:39;;;;;;;12.98;8.13;;;14.00;85.80;;;;;;5068496;28;20028;-45
2022/08/21 02:30:05;;;;;;;9.40;7.70;;;14.00;85.90;;;;;;5070697;28;20059;-45
2022/08/21 02:32:30;;;;;;;7.70;6.57;;;14.10;86.00;;;;;;5067177;28;20032;-46
2022/08/21 02:34:56;;;;;;;13.30;8.10;;;14.20;86.00;;;;;;5055114;28;20100;-45
2022/08/21 02:37:23;;;;;;;17.25;6.78;;;14.30;86.00;;;;;;5016358;28;20047;-45
2022/08/21 02:39:49;;;;;;;9.70;6.28;;;14.40;85.70;;;;;;5051352;28;20406;-45
2022/08/21 02:42:15;;;;;;;8.73;6.35;;;14.40;85.50;;;;;;5049217;28;20347;-50
2022/08/21 02:44:41;;;;;;;8.35;6.07;;;14.40;85.30;;;;;;5070655;28;20060;-45
2022/08/21 02:47:06;;;;;;;7.97;5.50;;;14.50;84.70;;;;;;5055194;28;20077;-45
2022/08/21 02:49:32;;;;;;;9.80;6.30;;;14.50;84.50;;;;;;5053871;28;20081;-45
2022/08/21 02:52:00;;;;;;;11.70;4.78;;;14.40;84.30;;;;;;5052561;28;20033;-45
2022/08/21 02:54:28;;;;;;;12.93;5.82;;;14.40;84.20;;;;;;5033122;28;20107;-46
2022/08/21 02:56:56;;;;;;;6.43;4.40;;;14.40;84.40;;;;;;5034258;28;20052;-45
2022/08/21 02:59:21;;;;;;;8.95;5.78;;;14.40;84.60;;;;;;5066463;28;20357;-46
2022/08/21 03:01:47;;;;;;;9.60;4.78;;;14.30;84.80;;;;;;5034059;28;20032;-46
2022/08/21 03:04:15;;;;;;;9.00;5.50;;;14.30;85.00;;;;;;5054582;28;20028;-45
2022/08/21 03:06:41;;;;;;;10.15;5.05;;;14.30;85.10;;;;;;5063125;28;20429;-46
2022/08/21 03:09:07;;;;;;;8.02;4.60;;;14.20;85.20;;;;;;5071471;28;20043;-45
2022/08/21 03:11:36;;;;;;;8.57;4.80;;;14.30;85.20;;;;;;5069692;28;20036;-45
2022/08/21 03:14:05;;;;;;;9.82;4.78;;;14.30;85.20;;;;;;5071276;28;20028;-45
2022/08/21 03:16:30;;;;;;;7.30;5.07;;;14.20;85.10;;;;;;5069090;28;20045;-46
2022/08/21 03:18:56;;;;;;;7.95;4.55;;;14.10;85.50;;;;;;5051770;28;20074;-46
2022/08/21 03:21:22;;;;;;;8.93;5.55;;;14.10;85.70;;;;;;5062116;28;20409;-44
2022/08/21 03:23:47;;;;;;;8.07;5.05;;;14.10;85.80;;;;;;5051719;28;20119;-47
2022/08/21 03:26:13;;;;;;;11.40;5.15;;;14.10;85.90;;;;;;5068044;28;20044;-44
2022/08/21 03:28:39;;;;;;;8.38;5.80;;;14.00;86.00;;;;;;5070660;28;20035;-49
2022/08/21 03:31:05;;;;;;;12.18;5.95;;;13.90;86.20;;;;;;5067880;28;20029;-45
2022/08/21 03:33:31;;;;;;;14.93;6.80;;;13.90;86.20;;;;;;5056313;28;20049;-45
2022/08/21 03:36:06;;;;;;;10.20;5.15;;;13.90;86.30;;;;;;5052278;28;20035;-46
2022/08/21 03:38:33;;;;;;;10.07;6.57;;;14.00;86.30;;;;;;5056045;28;20049;-45
2022/08/21 03:40:59;;;;;;;8.57;6.05;;;14.00;86.30;;;;;;5060048;28;20044;-44
2022/08/21 03:43:26;;;;;;;10.65;5.40;;;13.90;86.40;;;;;;5070690;28;20066;-46
2022/08/21 03:45:52;;;;;;;10.90;6.13;;;14.00;86.40;;;;;;5063172;28;20160;-46
2022/08/21 03:48:18;;;;;;;8.77;5.57;;;14.00;86.50;;;;;;5050443;28;20037;-46
2022/08/21 03:50:46;;;;;;;11.15;6.10;;;14.00;86.50;;;;;;5053731;28;20032;-45
2022/08/21 03:53:16;;;;;;;9.02;6.32;;;14.00;86.40;;;;;;5057608;28;20025;-47
2022/08/21 03:55:41;;;;;;;9.20;5.57;;;14.10;86.50;;;;;;5050022;28;20366;-47
2022/08/21 03:58:07;;;;;;;9.40;6.03;;;14.10;86.30;;;;;;5032476;28;20044;-46
2022/08/21 04:00:33;;;;;;;12.25;6.80;;;14.10;86.30;;;;;;5050494;28;20060;-44
2022/08/21 04:03:00;;;;;;;10.27;7.28;;;14.10;86.30;;;;;;5032478;28;20068;-46
2022/08/21 04:05:29;;;;;;;10.68;6.32;;;14.20;86.10;;;;;;5053176;28;20470;-47
2022/08/21 04:08:01;;;;;;;16.60;6.35;;;14.10;86.20;;;;;;5041306;28;20031;-44
2022/08/21 04:10:30;;;;;;;8.25;6.10;;;14.20;86.30;;;;;;5067723;28;20124;-45
2022/08/21 04:12:56;;;;;;;12.07;8.50;;;14.20;86.30;;;;;;5051259;28;20029;-45
2022/08/21 04:15:23;;;;;;;11.23;7.32;;;14.20;86.10;;;;;;5066994;28;20043;-46
2022/08/21 04:17:49;;;;;;;8.60;7.03;;;14.20;86.30;;;;;;5065385;28;20310;-45
2022/08/21 04:20:17;;;;;;;10.43;8.52;;;14.10;86.30;;;;;;5064696;28;20021;-45
2022/08/21 04:22:45;;;;;;;11.68;7.65;;;14.10;86.50;;;;;;5048419;28;20109;-43
2022/08/21 04:25:12;;;;;;;10.05;7.15;;;14.10;86.50;;;;;;5067966;28;20040;-44
2022/08/21 04:27:39;;;;;;;11.25;7.70;;;14.20;86.60;;;;;;5050914;28;20276;-45
2022/08/21 04:30:08;;;;;;;12.27;8.05;;;14.10;86.40;;;;;;5064467;28;20090;-45
2022/08/21 04:32:37;;;;;;;13.63;9.03;;;14.10;86.60;;;;;;5067313;28;20039;-44
2022/08/21 04:35:08;;;;;;;11.37;8.00;;;14.10;86.50;;;;;;5061044;28;20039;-45
2022/08/21 04:37:33;;;;;;;11.55;8.65;;;14.00;86.60;;;;;;5060275;28;20788;-45
2022/08/21 04:39:59;;;;;;;11.35;7.60;;;14.10;86.50;;;;;;5048972;28;20052;-45
2022/08/21 04:42:28;;;;;;;10.13;7.03;;;14.00;86.70;;;;;;5056399;28;20048;-43
2022/08/21 04:44:55;;;;;;;8.93;7.57;;;14.00;86.80;;;;;;5051872;28;20025;-45
2022/08/21 04:47:21;;;;;;;9.43;7.88;;;14.00;86.90;;;;;;5050070;28;20299;-45
2022/08/21 04:49:48;;;;;;;8.73;6.97;;;14.00;86.90;;;;;;5049867;28;20023;-44
2022/08/21 04:52:18;;;;;;;14.68;9.07;;;14.00;87.00;;;;;;5038425;28;20064;-46
2022/08/21 04:54:45;;;;;;;10.43;8.60;;;14.00;87.00;;;;;;5049510;28;20021;-45
2022/08/21 04:57:11;;;;;;;14.93;9.65;;;13.90;86.90;;;;;;5046297;28;20034;-46
2022/08/21 04:59:50;;;;;;;13.50;9.70;;;13.90;87.20;;;;;;5089474;28;20032;-45
2022/08/21 05:02:16;;;;;;;15.55;9.20;;;14.00;87.20;;;;;;5037596;28;20052;-45
2022/08/21 05:04:48;;;;;;;13.30;9.65;;;13.90;87.30;;;;;;5049488;28;20880;-45
2022/08/21 05:07:21;;;;;;;13.35;9.43;;;13.90;87.20;;;;;;5052722;28;20029;-45
2022/08/21 05:09:47;;;;;;;12.10;9.32;;;14.00;87.40;;;;;;5063838;28;20031;-44
2022/08/21 05:12:13;;;;;;;12.57;10.73;;;14.00;87.50;;;;;;5036646;28;20426;-45
2022/08/21 05:14:38;;;;;;;11.10;9.82;;;14.00;87.50;;;;;;5068898;28;20042;-46
2022/08/21 05:17:05;;;;;;;11.93;9.30;;;14.10;87.50;;;;;;5050074;28;20036;-44
2022/08/21 05:19:31;;;;;;;16.05;11.05;;;14.00;87.50;;;;;;5065913;28;20017;-44
2022/08/21 05:21:57;;;;;;;14.13;10.50;;;14.10;87.80;;;;;;5048828;28;20791;-44
2022/08/21 05:24:26;;;;;;;14.10;11.35;;;14.10;87.80;;;;;;5049878;28;20027;-44
2022/08/21 05:26:51;;;;;;;18.65;12.10;;;14.20;87.90;;;;;;5032639;28;20118;-46
2022/08/21 05:29:17;;;;;;;16.10;11.57;;;14.20;88.00;;;;;;5051208;28;20445;-44
2022/08/21 05:31:46;;;;;;;13.85;10.63;;;14.20;87.80;;;;;;5067242;28;20036;-49
2022/08/21 05:34:14;;;;;;;15.38;10.63;;;14.30;88.00;;;;;;5058331;28;20111;-48
2022/08/21 05:36:40;;;;;;;14.68;9.50;;;14.30;88.00;;;;;;5058442;28;20041;-45
2022/08/21 05:39:05;;;;;;;11.82;10.30;;;14.40;87.90;;;;;;5050063;28;20031;-44
2022/08/21 05:41:31;;;;;;;16.25;10.15;;;14.40;88.00;;;;;;5030707;28;20119;-46
2022/08/21 05:43:59;;;;;;;17.55;11.68;;;14.50;88.00;;;;;;5052155;28;20357;-45
2022/08/21 05:46:24;;;;;;;14.23;11.68;;;14.50;88.00;;;;;;5063983;28;20041;-45
2022/08/21 05:48:50;;;;;;;14.63;11.30;;;14.50;88.20;;;;;;5064668;28;20043;-45
2022/08/21 05:51:16;;;;;;;14.82;10.73;;;14.60;88.20;;;;;;5068236;28;20053;-45
2022/08/21 05:53:43;;;;;;;14.30;10.52;;;14.70;88.30;;;;;;5071328;28;20418;-45
2022/08/21 05:56:13;;;;;;;13.68;10.85;;;14.80;88.20;;;;;;5060641;28;20111;-47
2022/08/21 05:58:38;;;;;;;9.75;8.75;;;14.90;88.20;;;;;;5071059;28;20029;-45
2022/08/21 06:01:07;;;;;;;12.68;9.52;;;15.00;88.10;;;;;;5066999;28;20391;-45
2022/08/21 06:03:37;;;;;;;14.77;9.27;;;15.00;88.00;;;;;;5068241;28;20043;-45
2022/08/21 06:06:04;;;;;;;11.93;9.30;;;15.20;87.90;;;;;;5045383;28;20455;-47
2022/08/21 06:08:36;;;;;;;12.75;9.10;;;15.20;88.00;;;;;;5067649;28;20037;-45
2022/08/21 06:11:03;;;;;;;12.10;8.32;;;15.30;88.00;;;;;;5041354;28;20031;-45
2022/08/21 06:13:33;;;;;;;15.27;8.98;;;15.40;88.10;;;;;;5052421;28;20119;-44
2022/08/21 06:16:12;;;;;;;14.18;9.15;;;15.40;88.00;;;;;;5020746;28;20059;-45
2022/08/21 06:18:41;;;;;;;13.63;8.70;;;15.50;87.90;;;;;;5058813;28;20407;-47
2022/08/21 06:21:08;;;;;;;16.70;9.10;;;15.60;87.80;;;;;;5038219;28;20076;-45
2022/08/21 06:23:35;;;;;;;13.63;7.97;;;15.70;87.80;;;;;;5068458;28;20051;-46
2022/08/21 06:26:01;;;;;;;10.38;7.18;;;15.80;87.80;;;;;;5047210;28;20029;-45
2022/08/21 06:28:27;;;;;;;11.98;7.95;;;15.80;87.60;;;;;;5056789;28;20024;-45
2022/08/21 06:30:53;;;;;;;10.75;8.85;;;15.90;87.60;;;;;;5046771;28;20040;-47
2022/08/21 06:33:19;;;;;;;11.10;6.93;;;16.00;87.40;;;;;;5034718;28;20032;-45
2022/08/21 06:35:44;;;;;;;11.75;7.00;;;16.00;87.10;;;;;;5060499;28;20029;-45
2022/08/21 06:38:10;;;;;;;9.27;6.30;;;16.10;86.90;;;;;;5060920;28;20028;-47
2022/08/21 06:40:36;;;;;;;7.55;5.63;;;16.20;86.80;;;;;;5051651;28;20028;-43
2022/08/21 06:43:16;;;;;;;9.80;6.63;;;16.30;86.70;;;;;;5047119;28;20043;-46
2022/08/21 06:45:42;;;;;;;12.05;7.05;;;16.40;86.80;;;;;;5061516;28;20064;-45
2022/08/21 06:48:08;;;;;;;12.82;7.15;;;16.40;86.30;;;;;;5061683;28;20036;-45
2022/08/21 06:50:36;;;;;;;12.23;6.00;;;16.50;86.00;;;;;;5052009;28;20454;-44
2022/08/21 06:53:09;;;;;;;10.63;6.40;;;16.60;85.80;;;;;;5055126;28;20052;-45
2022/08/21 06:55:36;;;;;;;10.75;4.95;;;16.70;85.40;;;;;;5054340;28;20021;-44
2022/08/21 06:58:02;;;;;;;7.13;4.72;;;16.80;85.60;;;;;;5052891;28;20037;-44
2022/08/21 07:00:28;;;;;;;6.68;4.25;;;16.90;85.40;;;;;;5062728;28;20442;-45
2022/08/21 07:02:54;;;;;;;9.77;4.50;;;17.00;85.20;;;;;;5054731;28;20028;-45
2022/08/21 07:05:20;;;;;;;7.20;4.57;;;17.10;84.80;;;;;;5061143;28;20029;-47
2022/08/21 07:07:46;;;;;;;8.00;3.58;;;17.10;84.30;;;;;;5043357;28;20029;-46
2022/08/21 07:10:13;;;;;;;10.48;3.80;;;17.30;84.00;;;;;;5063296;28;20044;-45
2022/08/21 07:12:39;;;;;;;6.43;3.97;;;17.40;83.40;;;;;;5055357;28;20469;-46
2022/08/21 07:15:05;;;;;;;11.10;3.90;;;17.40;82.90;;;;;;5066879;28;20100;-45
2022/08/21 07:17:31;;;;;;;8.55;4.07;;;17.50;82.60;;;;;;5068093;28;20057;-46
2022/08/21 07:19:57;;;;;;;8.00;4.05;;;17.60;82.50;;;;;;5065903;28;20021;-47
2022/08/21 07:22:24;;;;;;;7.95;3.15;;;17.70;81.70;;;;;;5066795;28;20024;-45
2022/08/21 07:24:49;;;;;;;10.50;3.60;;;17.80;81.70;;;;;;5063026;28;20067;-46
2022/08/21 07:27:18;;;;;;;9.20;4.20;;;17.90;81.40;;;;;;5061306;28;20056;-50
2022/08/21 07:29:48;;;;;;;9.60;4.10;;;17.90;82.10;;;;;;5059924;28;20067;-46
2022/08/21 07:32:14;;;;;;;9.18;3.45;;;18.00;81.80;;;;;;5059733;28;20580;-47
2022/08/21 07:34:41;;;;;;;10.68;3.83;;;18.10;81.40;;;;;;5040898;28;20345;-46
2022/08/21 07:37:06;;;;;;;8.20;3.38;;;18.20;81.00;;;;;;5045982;28;20028;-46
2022/08/21 07:39:32;;;;;;;7.45;2.92;;;18.50;82.80;;;;;;5069086;28;20040;-46
2022/08/21 07:42:00;;;;;;;6.78;3.10;;;18.60;80.30;;;;;;5044892;28;20039;-46
2022/08/21 07:44:25;;;;;;;4.47;2.60;;;18.70;80.00;;;;;;5053380;28;20033;-46
2022/08/21 07:46:51;;;;;;;11.30;4.32;;;18.90;78.80;;;;;;5060051;28;20436;-47
2022/08/21 07:49:17;;;;;;;10.63;3.65;;;19.10;78.00;;;;;;5053545;28;20053;-47
2022/08/21 07:51:42;;;;;;;9.38;2.60;;;19.50;76.50;;;;;;5048523;28;20037;-47
2022/08/21 07:54:08;;;;;;;9.10;2.47;;;20.00;74.90;;;;;;5067029;28;20040;-47
2022/08/21 07:56:34;;;;;;;7.15;2.70;;;20.50;73.70;;;;;;5039650;28;20037;-47
2022/08/21 07:59:02;;;;;;;10.27;2.33;;;21.10;71.60;;;;;;5049936;28;20033;-46
2022/08/21 08:01:28;;;;;;;7.75;2.08;;;21.60;69.90;;;;;;5059917;28;20047;-48
2022/08/21 08:03:54;;;;;;;5.78;2.20;;;22.10;69.80;;;;;;5067903;28;20115;-47
2022/08/21 08:06:20;;;;;;;8.48;2.90;;;22.40;69.00;;;;;;5061613;28;20052;-46
2022/08/21 08:08:46;;;;;;;13.57;2.67;;;22.70;69.20;;;;;;5032701;28;20053;-49
2022/08/21 08:11:15;;;;;;;7.63;2.33;;;23.00;66.00;;;;;;5058974;28;20032;-47
2022/08/21 08:13:44;;;;;;;5.55;2.30;;;23.00;66.50;;;;;;5085453;28;20712;-48
2022/08/21 08:16:10;;;;;;;6.32;2.08;;;23.30;64.70;;;;;;5086876;28;20066;-49
2022/08/21 08:18:36;;;;;;;6.90;2.75;;;23.70;66.20;;;;;;5064440;28;20028;-48
2022/08/21 08:21:05;;;;;;;7.18;2.50;;;23.90;63.80;;;;;;5039545;28;20032;-46
2022/08/21 08:23:34;;;;;;;8.18;2.70;;;24.10;62.50;;;;;;5033065;28;20033;-48
2022/08/21 08:25:59;;;;;;;5.30;2.10;;;24.00;62.90;;;;;;5031841;28;20461;-49
2022/08/21 08:28:26;;;;;;;8.45;2.80;;;24.30;63.20;;;;;;5061743;28;20033;-47
2022/08/21 08:30:55;;;;;;;7.07;2.40;;;24.60;62.50;;;;;;5049775;28;20041;-48
2022/08/21 08:33:21;;;;;;;7.00;3.22;;;24.90;62.00;;;;;;5051527;28;20044;-50
2022/08/21 08:35:49;;;;;;;6.38;2.42;;;24.60;60.90;;;;;;5049865;28;20037;-47
2022/08/21 08:38:20;;;;;;;6.75;2.40;;;24.80;60.50;;;;;;5049388;28;20083;-47
2022/08/21 08:41:12;;;;;;;6.38;2.25;;;24.60;61.80;;;;;;5054951;28;20016;-46
2022/08/21 08:43:39;;;;;;;7.88;2.60;;;24.90;59.10;;;;;;5064124;28;20021;-47
2022/08/21 08:46:11;;;;;;;6.43;2.78;;;25.10;59.10;;;;;;5059779;28;20056;-47
2022/08/21 08:48:51;;;;;;;6.43;2.85;;;25.20;59.60;;;;;;5067967;28;20056;-52
2022/08/21 08:51:26;;;;;;;7.88;2.15;;;25.10;61.90;;;;;;5036244;28;20132;-47
2022/08/21 08:54:03;;;;;;;7.05;2.22;;;24.90;59.70;;;;;;5049309;28;20025;-49
2022/08/21 08:56:33;;;;;;;7.25;2.40;;;25.00;60.90;;;;;;5052161;28;20057;-49
2022/08/21 08:59:13;;;;;;;7.03;1.83;;;24.90;58.90;;;;;;5084569;28;20487;-48
2022/08/21 09:01:39;;;;;;;5.50;2.00;;;24.90;60.20;;;;;;5070937;28;20043;-49
2022/08/21 09:04:05;;;;;;;7.15;1.90;;;25.00;60.80;;;;;;5069092;28;20494;-46
2022/08/21 09:06:43;;;;;;;8.57;2.63;;;25.30;61.00;;;;;;5059433;28;20025;-46
2022/08/21 09:09:20;;;;;;;7.72;2.10;;;25.80;61.00;;;;;;5067147;28;20131;-46
2022/08/21 09:11:55;;;;;;;7.18;2.10;;;25.90;58.50;;;;;;5067326;28;20020;-46
2022/08/21 09:14:30;;;;;;;7.30;2.45;;;25.90;57.10;;;;;;5047275;28;20032;-46
2022/08/21 09:17:12;;;;;;;8.02;2.88;;;25.50;58.30;;;;;;5062188;28;20037;-46
2022/08/21 09:19:47;;;;;;;7.32;2.97;;;25.10;58.60;;;;;;5061870;28;20020;-48
2022/08/21 09:22:33;;;;;;;6.07;2.55;;;24.20;61.60;;;;;;5048639;28;20087;-47
2022/08/21 09:25:12;;;;;;;7.32;2.67;;;23.80;61.40;;;;;;5064003;28;20044;-46
2022/08/21 09:27:37;;;;;;;7.73;2.33;;;23.20;63.50;;;;;;5067216;28;20082;-47
2022/08/21 09:30:07;;;;;;;9.32;3.30;;;23.30;66.10;;;;;;5047310;28;20028;-48
2022/08/21 09:32:37;;;;;;;10.63;2.75;;;23.20;64.40;;;;;;5053756;28;20036;-47
2022/08/21 09:35:12;;;;;;;10.35;2.20;;;23.20;65.90;;;;;;5053038;28;20033;-47
2022/08/21 09:38:23;;;;;;;7.28;2.03;;;22.90;64.20;;;;;;5065713;28;20024;-46
2022/08/21 09:40:58;;;;;;;9.20;2.05;;;23.40;65.40;;;;;;4986648;28;20045;-46
2022/08/21 09:43:27;;;;;;;8.27;2.60;;;24.00;63.50;;;;;;4986672;28;20037;-46
2022/08/21 09:46:10;;;;;;;6.93;1.95;;;24.40;63.60;;;;;;4980804;28;20528;-48
2022/08/21 09:48:47;;;;;;;7.13;2.97;;;25.00;63.10;;;;;;4963994;28;20034;-46
2022/08/21 09:51:25;;;;;;;7.45;2.22;;;25.60;60.00;;;;;;4979767;28;20072;-47
2022/08/21 09:54:11;;;;;;;6.28;2.20;;;25.00;58.50;;;;;;5002445;28;20066;-46
2022/08/21 09:59:37;;;;;;;5.85;1.98;;;24.10;62.00;;;;;;4996746;28;20547;-47
2022/08/21 10:02:19;;;;;;;10.82;2.22;;;24.30;62.50;;;;;;4985622;28;20100;-50
2022/08/21 10:04:51;;;;;;;8.38;2.65;;;24.00;61.40;;;;;;4989162;28;20120;-46
2022/08/21 10:07:22;;;;;;;10.43;2.28;;;23.80;62.20;;;;;;4989850;28;20468;-46
2022/08/21 10:10:07;;;;;;;10.43;2.38;;;23.30;63.30;;;;;;5006190;28;20499;-47
2022/08/21 10:13:07;;;;;;;9.10;3.03;;;23.30;62.50;;;;;;5006498;28;20045;-46
2022/08/21 10:15:52;;;;;;;6.43;2.72;;;23.30;61.30;;;;;;5034371;28;20040;-46
2022/08/21 10:18:46;;;;;;;11.73;3.03;;;23.60;63.90;;;;;;5052220;28;20021;-49
2022/08/21 10:21:27;;;;;;;7.18;2.65;;;23.90;61.10;;;;;;5043650;28;20398;-46
2022/08/21 10:24:24;;;;;;;6.00;1.90;;;24.00;61.00;;;;;;5064478;28;20025;-46
2022/08/21 10:26:59;;;;;;;9.75;2.33;;;24.10;58.70;;;;;;5066510;28;20028;-46
2022/08/21 10:29:50;;;;;;;6.53;2.53;;;24.00;59.10;;;;;;5050549;28;20040;-48
2022/08/21 10:32:33;;;;;;;7.03;2.03;;;23.80;60.10;;;;;;5056697;28;20127;-46
2022/08/21 10:35:30;;;;;;;10.25;2.47;;;24.00;59.90;;;;;;5060762;28;20046;-46
2022/08/21 10:38:02;;;;;;;7.70;2.95;;;24.00;58.50;;;;;;5053987;28;20132;-47
2022/08/21 10:40:52;;;;;;;7.22;3.13;;;23.90;59.20;;;;;;5065342;28;20027;-46
2022/08/21 10:43:44;;;;;;;7.50;2.60;;;24.10;58.00;;;;;;5043156;28;20033;-46
2022/08/21 10:46:30;;;;;;;9.18;2.65;;;24.20;57.90;;;;;;5055958;28;20441;-47
2022/08/21 10:49:33;;;;;;;7.25;2.15;;;24.50;57.70;;;;;;5055088;28;20106;-47
2022/08/21 10:52:08;;;;;;;5.53;2.17;;;24.90;58.50;;;;;;5058518;28;20037;-48
2022/08/21 10:54:52;;;;;;;14.73;3.15;;;25.00;55.60;;;;;;5052721;28;20052;-46
2022/08/21 10:57:43;;;;;;;7.85;2.55;;;25.20;57.60;;;;;;5047039;28;20045;-46
2022/08/21 11:00:14;;;;;;;5.40;2.35;;;25.30;56.60;;;;;;5054143;28;20044;-48
2022/08/21 11:02:53;;;;;;;5.20;1.67;;;25.60;55.30;;;;;;5036015;28;20032;-46
2022/08/21 11:05:25;;;;;;;9.35;2.45;;;25.80;54.50;;;;;;5041568;28;20037;-46
2022/08/21 11:08:01;;;;;;;8.00;2.17;;;25.50;54.10;;;;;;5054036;28;20104;-46
2022/08/21 11:10:35;;;;;;;10.93;2.22;;;25.70;55.60;;;;;;5051061;28;20039;-46
2022/08/21 11:13:08;;;;;;;7.57;2.42;;;25.90;54.80;;;;;;5051695;28;20465;-46
2022/08/21 11:15:55;;;;;;;4.63;2.08;;;25.90;52.30;;;;;;5064261;28;20039;-46
2022/08/21 11:18:34;;;;;;;4.00;1.42;;;25.20;52.50;;;;;;5067592;28;20037;-46
2022/08/21 11:21:35;;;;;;;;;;;24.90;53.40;;;;;;5069724;28;20016;-46
2022/08/21 11:24:23;;;;;;;6.55;1.98;;;24.90;54.80;;;;;;4987167;28;19996;-46
2022/08/21 11:26:58;;;;;;;6.22;1.67;;;25.10;56.00;;;;;;4983483;28;20460;-48
2022/08/21 11:29:34;;;;;;;5.70;1.40;;;25.20;58.20;;;;;;4966973;28;20041;-48
2022/08/21 11:32:47;;;;;;;5.57;2.22;;;25.40;56.70;;;;;;4982551;28;20041;-46
2022/08/21 11:35:50;;;;;;;5.07;1.70;;;25.50;56.70;;;;;;4978683;28;20116;-48
2022/08/21 11:38:46;;;;;;;7.43;2.13;;;25.40;54.30;;;;;;4985108;28;20053;-47
2022/08/21 11:41:48;;;;;;;7.30;1.55;;;25.30;52.60;;;;;;4970461;28;20042;-47
2022/08/21 11:44:44;;;;;;;6.05;1.55;;;25.30;53.80;;;;;;4984351;28;21263;-47
2022/08/21 11:47:46;;;;;;;8.30;1.98;;;25.20;53.80;;;;;;4981408;28;20060;-45
2022/08/21 11:50:33;;;;;;;3.72;1.42;;;25.20;54.00;;;;;;4984872;28;20049;-48
2022/08/21 11:53:07;;;;;;;3.30;1.45;;;25.10;52.30;;;;;;4984396;28;20134;-48
2022/08/21 11:56:14;;;;;;;6.00;1.58;;;25.10;54.30;;;;;;4975247;28;20034;-46
2022/08/21 11:58:49;;;;;;;6.38;2.05;;;25.50;53.90;;;;;;4937744;28;20703;-45
2022/08/21 12:01:24;;;;;;;4.85;1.25;;;25.60;54.00;;;;;;5026934;28;20041;-47
2022/08/21 12:04:14;;;;;;;7.28;2.13;;;25.90;54.60;;;;;;5039411;28;20021;-46
2022/08/21 12:06:45;;;;;;;9.57;2.53;;;25.70;52.10;;;;;;5026630;28;20037;-47
2022/08/21 12:09:36;;;;;;;6.75;1.80;;;25.80;52.50;;;;;;5048856;28;20041;-46
2022/08/21 12:12:21;;;;;;;5.85;1.50;;;25.80;50.40;;;;;;5036993;28;20108;-46
2022/08/21 12:15:03;;;;;;;5.05;2.00;;;25.50;50.40;;;;;;5029461;28;20054;-45
2022/08/21 12:17:37;;;;;;;5.55;2.05;;;25.40;51.70;;;;;;5048495;28;20134;-46
2022/08/21 12:20:34;;;;;;;6.70;1.77;;;25.50;51.60;;;;;;5026513;28;20457;-46
2022/08/21 12:23:09;;;;;;;8.00;1.67;;;25.30;52.80;;;;;;5036391;28;20438;-46
2022/08/21 12:25:42;;;;;;;3.55;1.30;;;25.10;52.40;;;;;;5039526;28;20026;-46
2022/08/21 12:28:23;;;;;;;3.95;1.80;;;24.80;52.80;;;;;;5027769;28;20456;-45
2022/08/21 12:30:51;;;;;;;5.35;1.33;;;24.70;54.40;;;;;;5026432;28;20357;-46
2022/08/21 12:33:37;;;;;;;5.47;1.42;;;24.40;52.80;;;;;;5046850;28;20474;-46
2022/08/21 12:36:10;;;;;;;6.40;1.75;;;24.40;53.80;;;;;;5022675;28;20048;-47
2022/08/21 12:38:56;;;;;;;5.55;2.25;;;24.30;54.10;;;;;;5005236;28;20037;-46
2022/08/21 12:41:51;;;;;;;6.00;1.85;;;24.30;54.00;;;;;;5017240;28;20048;-46
2022/08/21 12:44:44;;;;;;;4.30;1.33;;;24.40;55.10;;;;;;5020039;28;20033;-46
2022/08/21 12:47:43;;;;;;;5.18;1.30;;;24.60;55.60;;;;;;5056448;28;20048;-46
2022/08/21 12:50:33;;;;;;;6.22;1.63;;;24.70;54.70;;;;;;5041543;28;20044;-46
2022/08/21 12:53:05;;;;;;;2.90;1.35;;;24.70;53.70;;;;;;5043096;28;20535;-45
2022/08/21 12:55:40;;;;;;;6.25;1.30;;;24.70;53.60;;;;;;5067024;28;20028;-46
2022/08/21 12:58:20;;;;;;;8.68;1.60;;;24.40;53.00;;;;;;5030881;28;20037;-46
2022/08/21 13:00:51;;;;;;;6.70;1.83;;;24.20;54.00;;;;;;5048192;28;20123;-46
2022/08/21 13:03:18;;;;;;;6.40;2.15;;;24.30;55.00;;;;;;5056407;28;20451;-47
2022/08/21 13:05:44;;;;;;;6.72;1.70;;;24.30;54.90;;;;;;5067190;28;20024;-46
2022/08/21 13:08:13;;;;;;;5.57;1.88;;;24.20;55.40;;;;;;5037678;28;20065;-47
2022/08/21 13:10:40;;;;;;;5.80;1.70;;;24.20;53.80;;;;;;5057556;28;20051;-45